Time;durP1;ratioP1;P1;durP2;ratioP2;P2;SDS_P1;SDS_P2;PMS_P1;PMS_P2;Temp;Humidity;BMP_temperature;BMP_pressure;BME280_temperature;BME280_humidity;BME280_pressure;Samples;Min_cycle;Max_cycle;Signal;HPM_P1;HPM_P2
2023/12/24 00:00:13;;;;;;;26.00;17.88;;;4.10;99.90;;;;;;2076284;28;20045;-77
2023/12/24 00:01:14;;;;;;;24.30;17.33;;;4.10;99.90;;;;;;2078561;28;20203;-76
2023/12/24 00:02:14;;;;;;;27.95;18.20;;;4.20;99.90;;;;;;2078998;28;20033;-77
2023/12/24 00:03:15;;;;;;;27.25;18.65;;;4.20;99.90;;;;;;2070224;28;20029;-76
2023/12/24 00:04:16;;;;;;;26.95;18.58;;;4.20;99.90;;;;;;2076562;28;20530;-77
2023/12/24 00:05:16;;;;;;;35.53;20.52;;;4.20;99.90;;;;;;2085980;28;20119;-77
2023/12/24 00:06:17;;;;;;;32.28;20.38;;;4.20;99.90;;;;;;2070844;28;20116;-76
2023/12/24 00:07:18;;;;;;;30.00;20.60;;;4.20;99.90;;;;;;2066944;28;20551;-77
2023/12/24 00:08:19;;;;;;;31.50;20.40;;;4.20;99.90;;;;;;2072853;28;20456;-77
2023/12/24 00:09:20;;;;;;;28.83;19.45;;;4.20;99.90;;;;;;2079118;28;20506;-77
2023/12/24 00:10:21;;;;;;;26.23;18.77;;;4.20;99.90;;;;;;2077000;28;20033;-78
2023/12/24 00:11:22;;;;;;;24.35;18.08;;;4.10;99.90;;;;;;2068686;28;20311;-78
2023/12/24 00:12:22;;;;;;;26.63;18.80;;;4.10;99.90;;;;;;2067902;28;20404;-77
2023/12/24 00:13:26;;;;;;;25.25;17.70;;;4.10;99.90;;;;;;2075862;28;20388;-77
2023/12/24 00:14:27;;;;;;;23.45;16.55;;;4.10;99.90;;;;;;2086945;28;20190;-76
2023/12/24 00:15:27;;;;;;;23.63;16.65;;;4.10;99.90;;;;;;2077794;28;20026;-78
2023/12/24 00:16:28;;;;;;;20.75;14.95;;;4.20;99.90;;;;;;2076020;28;20037;-77
2023/12/24 00:17:28;;;;;;;21.50;15.50;;;4.20;99.90;;;;;;2078810;28;20120;-77
2023/12/24 00:18:29;;;;;;;23.45;17.08;;;4.20;99.90;;;;;;2078324;28;20420;-77
2023/12/24 00:19:30;;;;;;;24.65;16.85;;;4.20;99.90;;;;;;2076059;28;20037;-77
2023/12/24 00:20:31;;;;;;;24.55;16.63;;;4.20;99.90;;;;;;2070883;28;20052;-78
2023/12/24 00:21:31;;;;;;;17.77;11.90;;;4.20;99.90;;;;;;2070140;28;20025;-78
2023/12/24 00:22:32;;;;;;;13.68;10.38;;;4.30;99.90;;;;;;2067280;28;20080;-77
2023/12/24 00:23:32;;;;;;;14.63;11.40;;;4.40;99.90;;;;;;2062647;28;20389;-77
2023/12/24 00:24:33;;;;;;;15.52;11.40;;;4.50;99.90;;;;;;2070451;28;20464;-78
2023/12/24 00:25:35;;;;;;;12.25;9.25;;;4.60;99.90;;;;;;2074975;28;20033;-78
2023/12/24 00:26:35;;;;;;;11.20;8.90;;;4.60;99.90;;;;;;2079337;28;20067;-78
2023/12/24 00:27:36;;;;;;;10.63;7.88;;;4.70;99.90;;;;;;2075105;28;20025;-76
2023/12/24 00:28:36;;;;;;;11.98;8.52;;;4.80;99.90;;;;;;2083091;28;20025;-77
2023/12/24 00:29:37;;;;;;;9.77;7.30;;;4.90;99.90;;;;;;2078953;28;20029;-77
2023/12/24 00:30:38;;;;;;;8.40;7.13;;;5.00;99.90;;;;;;2076472;28;20033;-77
2023/12/24 00:31:39;;;;;;;10.02;7.93;;;5.10;99.90;;;;;;2072580;28;20056;-76
2023/12/24 00:32:39;;;;;;;11.52;8.32;;;5.10;99.90;;;;;;2078510;28;20033;-78
2023/12/24 00:33:40;;;;;;;9.32;7.80;;;5.10;99.90;;;;;;2078170;28;20021;-78
2023/12/24 00:34:41;;;;;;;10.43;7.82;;;5.10;99.90;;;;;;2075427;28;20041;-76
2023/12/24 00:35:41;;;;;;;9.77;7.95;;;5.10;99.90;;;;;;2070281;28;20264;-78
2023/12/24 00:36:42;;;;;;;9.85;7.85;;;5.10;99.90;;;;;;2070814;28;20018;-78
2023/12/24 00:37:42;;;;;;;9.98;7.70;;;5.00;99.90;;;;;;2079073;28;20535;-77
2023/12/24 00:38:43;;;;;;;8.40;6.72;;;5.10;99.90;;;;;;2076092;28;20030;-78
2023/12/24 00:39:44;;;;;;;8.55;6.88;;;5.10;99.90;;;;;;2078236;28;20037;-79
2023/12/24 00:40:44;;;;;;;8.55;6.03;;;5.10;99.90;;;;;;2070703;28;20519;-78
2023/12/24 00:41:45;;;;;;;2.65;2.35;;;5.10;99.90;;;;;;2072096;28;20033;-78
2023/12/24 00:42:46;;;;;;;2.45;2.25;;;5.40;99.90;;;;;;2077422;28;20280;-78
2023/12/24 00:43:46;;;;;;;2.40;2.20;;;5.60;99.90;;;;;;2078844;28;20106;-78
2023/12/24 00:44:47;;;;;;;2.40;2.20;;;5.80;99.90;;;;;;2067839;28;20017;-78
2023/12/24 00:45:47;;;;;;;2.45;2.25;;;5.90;99.90;;;;;;2069366;28;20025;-77
2023/12/24 00:46:48;;;;;;;2.40;1.95;;;6.00;99.90;;;;;;2062206;28;20111;-76
2023/12/24 00:47:49;;;;;;;2.15;1.95;;;6.10;99.90;;;;;;2068090;28;20018;-77
2023/12/24 00:48:50;;;;;;;2.25;2.00;;;6.10;99.90;;;;;;2077206;28;20305;-78
2023/12/24 00:49:51;;;;;;;2.75;2.00;;;6.10;99.90;;;;;;2078726;28;20040;-77
2023/12/24 00:50:51;;;;;;;2.20;2.00;;;6.10;99.90;;;;;;2076340;28;20044;-78
2023/12/24 00:51:53;;;;;;;2.03;1.92;;;6.10;99.90;;;;;;2076862;28;20033;-78
2023/12/24 00:52:53;;;;;;;2.25;1.80;;;6.20;99.90;;;;;;2079735;28;20078;-77
2023/12/24 00:53:54;;;;;;;2.35;1.80;;;6.20;99.90;;;;;;2077684;28;20037;-77
2023/12/24 00:54:54;;;;;;;2.10;1.70;;;6.30;99.90;;;;;;2077321;28;20060;-77
2023/12/24 00:55:57;;;;;;;1.70;1.60;;;6.30;99.90;;;;;;2078792;28;20021;-78
2023/12/24 00:56:58;;;;;;;2.05;1.70;;;6.40;99.90;;;;;;2069511;28;20091;-78
2023/12/24 00:57:58;;;;;;;1.90;1.70;;;6.40;99.90;;;;;;2075820;28;20037;-78
2023/12/24 00:58:59;;;;;;;1.70;1.60;;;6.40;99.90;;;;;;2075247;28;20045;-76
2023/12/24 01:00:00;;;;;;;1.70;1.60;;;6.40;99.90;;;;;;2070386;28;20041;-76
2023/12/24 01:01:00;;;;;;;1.90;1.60;;;6.40;99.90;;;;;;2069744;28;20277;-75
2023/12/24 01:02:01;;;;;;;1.50;1.40;;;6.50;99.90;;;;;;2067385;28;20049;-75
2023/12/24 01:03:01;;;;;;;1.67;1.58;;;6.50;99.90;;;;;;2074841;28;20034;-75
2023/12/24 01:04:02;;;;;;;1.95;1.58;;;6.50;99.90;;;;;;2075381;28;20033;-75
2023/12/24 01:05:04;;;;;;;1.63;1.35;;;6.50;99.90;;;;;;2079287;28;20463;-75
2023/12/24 01:06:05;;;;;;;1.50;1.40;;;6.50;99.90;;;;;;2074961;28;20036;-76
2023/12/24 01:07:05;;;;;;;1.50;1.40;;;6.50;99.90;;;;;;2075123;28;20040;-76
2023/12/24 01:08:06;;;;;;;2.15;1.50;;;6.50;99.90;;;;;;2075125;28;20476;-77
2023/12/24 01:09:06;;;;;;;1.65;1.50;;;6.50;99.90;;;;;;2079395;28;20037;-75
2023/12/24 01:10:08;;;;;;;1.50;1.40;;;6.60;99.90;;;;;;2074882;28;20034;-76
2023/12/24 01:11:08;;;;;;;1.73;1.42;;;6.60;99.90;;;;;;2062476;28;20069;-75
2023/12/24 01:12:09;;;;;;;1.60;1.50;;;6.60;99.90;;;;;;2070534;28;20025;-75
2023/12/24 01:13:09;;;;;;;1.60;1.50;;;6.70;99.90;;;;;;2076759;28;20496;-76
2023/12/24 01:14:10;;;;;;;1.67;1.50;;;6.70;99.90;;;;;;2082511;28;20025;-76
2023/12/24 01:15:11;;;;;;;1.65;1.55;;;6.60;99.90;;;;;;2079882;28;20036;-78
2023/12/24 01:16:12;;;;;;;1.70;1.60;;;6.60;99.90;;;;;;2069897;28;20097;-75
2023/12/24 01:17:14;;;;;;;1.60;1.50;;;6.60;99.90;;;;;;2075881;28;20341;-77
2023/12/24 01:18:16;;;;;;;1.77;1.67;;;6.70;99.90;;;;;;2078546;28;20219;-77
2023/12/24 01:19:16;;;;;;;2.65;1.75;;;6.70;99.90;;;;;;2075492;28;20086;-75
2023/12/24 01:20:21;;;;;;;1.73;1.63;;;6.60;99.90;;;;;;2078196;28;20042;-76
2023/12/24 01:21:22;;;;;;;2.05;1.80;;;6.70;99.90;;;;;;2078433;28;20033;-76
2023/12/24 01:22:22;;;;;;;1.65;1.55;;;6.70;99.90;;;;;;2075923;28;20048;-76
2023/12/24 01:23:23;;;;;;;1.73;1.63;;;6.70;99.90;;;;;;2076742;28;20033;-75
2023/12/24 01:24:24;;;;;;;1.90;1.70;;;6.60;99.90;;;;;;2075718;28;20029;-77
2023/12/24 01:25:24;;;;;;;2.28;1.85;;;6.60;99.90;;;;;;2078333;28;20104;-76
2023/12/24 01:26:25;;;;;;;1.80;1.70;;;6.70;99.90;;;;;;2078290;28;20067;-77
2023/12/24 01:27:27;;;;;;;1.90;1.80;;;6.70;99.90;;;;;;2084742;28;20036;-76
2023/12/24 01:28:27;;;;;;;1.95;1.85;;;6.70;99.90;;;;;;2084351;28;20044;-77
2023/12/24 01:29:28;;;;;;;1.70;1.60;;;6.70;99.90;;;;;;2086931;28;20497;-78
2023/12/24 01:30:29;;;;;;;2.22;1.80;;;6.70;99.90;;;;;;2075326;28;20454;-78
2023/12/24 01:31:29;;;;;;;3.35;1.98;;;6.70;99.90;;;;;;2072179;28;20416;-76
2023/12/24 01:32:30;;;;;;;1.90;1.80;;;6.70;99.90;;;;;;2075427;28;20025;-77
2023/12/24 01:33:31;;;;;;;2.35;1.73;;;6.70;99.90;;;;;;2078366;28;20030;-76
2023/12/24 01:34:31;;;;;;;2.33;1.90;;;6.70;99.90;;;;;;2077513;28;20029;-76
2023/12/24 01:35:32;;;;;;;2.00;1.80;;;6.70;99.90;;;;;;2076390;28;20245;-76
2023/12/24 01:36:33;;;;;;;2.95;1.77;;;6.80;99.90;;;;;;2074914;28;20033;-76
2023/12/24 01:37:33;;;;;;;2.47;1.70;;;6.80;99.90;;;;;;2075157;28;20135;-77
2023/12/24 01:38:34;;;;;;;3.53;1.98;;;6.70;99.90;;;;;;2075202;28;20413;-77
2023/12/24 01:39:34;;;;;;;1.90;1.80;;;6.70;99.90;;;;;;2067093;28;20573;-76
2023/12/24 01:40:35;;;;;;;2.45;2.08;;;6.80;99.90;;;;;;2075136;28;20017;-77
2023/12/24 01:41:35;;;;;;;2.75;2.00;;;6.70;99.90;;;;;;2077632;28;20599;-78
2023/12/24 01:42:36;;;;;;;3.13;2.05;;;6.70;99.90;;;;;;2076426;28;20029;-77
2023/12/24 01:43:37;;;;;;;2.17;1.98;;;6.80;99.90;;;;;;2076492;28;20124;-77
2023/12/24 01:44:37;;;;;;;2.13;1.92;;;6.80;99.90;;;;;;2082833;28;20024;-77
2023/12/24 01:45:38;;;;;;;3.15;2.00;;;6.70;99.90;;;;;;2066440;28;20030;-75
2023/12/24 01:46:40;;;;;;;2.65;2.00;;;6.80;99.90;;;;;;2066909;28;20022;-80
2023/12/24 01:47:42;;;;;;;2.30;1.90;;;6.80;99.90;;;;;;2070738;28;20026;-75
2023/12/24 01:48:42;;;;;;;2.20;2.00;;;6.80;99.90;;;;;;2074610;28;20020;-83
2023/12/24 01:49:45;;;;;;;1.90;1.80;;;6.80;99.90;;;;;;2083817;28;20622;-75
2023/12/24 01:50:46;;;;;;;2.38;1.90;;;6.80;99.90;;;;;;2066143;28;20045;-76
2023/12/24 01:51:47;;;;;;;2.88;1.90;;;6.80;99.90;;;;;;2058277;28;20586;-76
2023/12/24 01:52:48;;;;;;;2.70;1.85;;;6.70;99.90;;;;;;2066156;28;20088;-74
2023/12/24 01:53:51;;;;;;;2.80;2.00;;;6.80;99.90;;;;;;2074658;28;20173;-74
2023/12/24 01:54:53;;;;;;;1.95;1.75;;;6.80;99.90;;;;;;2074662;28;20104;-75
2023/12/24 01:55:53;;;;;;;1.92;1.73;;;6.90;99.90;;;;;;2079107;28;20514;-74
2023/12/24 01:56:54;;;;;;;1.92;1.80;;;6.90;99.90;;;;;;2084351;28;20032;-75
2023/12/24 01:57:56;;;;;;;3.45;1.90;;;6.90;99.90;;;;;;2076329;28;20502;-74
2023/12/24 01:58:58;;;;;;;3.15;1.70;;;6.90;99.90;;;;;;2076305;28;20026;-75
2023/12/24 01:59:59;;;;;;;1.83;1.73;;;6.90;99.90;;;;;;2075958;28;20022;-74
2023/12/24 02:01:00;;;;;;;1.92;1.67;;;6.90;99.90;;;;;;2078091;28;20025;-75
2023/12/24 02:02:02;;;;;;;2.33;1.70;;;6.90;99.90;;;;;;2076895;28;20028;-74
2023/12/24 02:03:04;;;;;;;2.53;1.70;;;6.90;99.90;;;;;;2074108;28;20064;-74
2023/12/24 02:04:05;;;;;;;1.88;1.50;;;6.90;99.90;;;;;;2078150;28;20504;-75
2023/12/24 02:05:07;;;;;;;2.00;1.73;;;6.90;99.90;;;;;;2077726;28;20103;-74
2023/12/24 02:06:10;;;;;;;1.75;1.63;;;6.90;99.90;;;;;;2074039;28;20033;-75
2023/12/24 02:07:12;;;;;;;2.45;1.70;;;6.90;99.90;;;;;;2066284;28;20605;-75
2023/12/24 02:08:18;;;;;;;1.83;1.73;;;6.90;99.90;;;;;;2078248;28;20056;-75
2023/12/24 02:09:19;;;;;;;1.65;1.55;;;6.90;99.90;;;;;;2082140;28;20772;-75
2023/12/24 02:10:20;;;;;;;1.98;1.60;;;6.90;99.90;;;;;;2075279;28;20033;-76
2023/12/24 02:11:21;;;;;;;1.75;1.60;;;6.90;99.90;;;;;;2076914;28;20065;-76
2023/12/24 02:12:22;;;;;;;2.88;1.70;;;6.90;99.90;;;;;;2078112;28;20041;-75
2023/12/24 02:13:22;;;;;;;2.35;1.60;;;6.80;99.90;;;;;;2075496;28;20449;-77
2023/12/24 02:14:23;;;;;;;2.13;1.70;;;6.80;99.90;;;;;;2076793;28;20037;-76
2023/12/24 02:15:23;;;;;;;1.58;1.48;;;6.80;99.90;;;;;;2078809;28;20037;-73
2023/12/24 02:16:27;;;;;;;2.38;1.60;;;6.80;99.90;;;;;;2076655;28;20060;-76
2023/12/24 02:17:28;;;;;;;1.70;1.60;;;6.80;99.90;;;;;;2076040;28;20438;-75
2023/12/24 02:18:29;;;;;;;1.58;1.48;;;6.80;99.90;;;;;;2078168;28;20039;-75
2023/12/24 02:19:30;;;;;;;2.08;1.60;;;6.80;99.90;;;;;;2077673;28;20820;-75
2023/12/24 02:20:30;;;;;;;1.60;1.50;;;6.80;99.90;;;;;;2083865;28;20036;-75
2023/12/24 02:21:31;;;;;;;1.58;1.48;;;6.80;99.90;;;;;;2078034;28;20057;-75
2023/12/24 02:22:31;;;;;;;2.03;1.50;;;6.80;99.90;;;;;;2076842;28;20550;-75
2023/12/24 02:23:32;;;;;;;2.15;1.50;;;6.80;99.90;;;;;;2066980;28;20487;-74
2023/12/24 02:24:33;;;;;;;1.92;1.35;;;6.80;99.90;;;;;;2071036;28;20103;-76
2023/12/24 02:25:34;;;;;;;1.65;1.40;;;6.80;99.90;;;;;;2084489;28;20148;-76
2023/12/24 02:26:53;;;;;;;1.48;1.38;;;6.80;99.90;;;;;;2075459;28;20037;-76
2023/12/24 02:28:23;;;;;;;1.60;1.50;;;6.90;99.90;;;;;;2076155;28;20626;-75
2023/12/24 02:29:32;;;;;;;3.35;1.50;;;6.80;99.90;;;;;;2083078;28;20036;-77
2023/12/24 02:30:36;;;;;;;3.70;1.77;;;6.90;99.90;;;;;;2076784;28;20033;-76
2023/12/24 02:31:40;;;;;;;2.65;1.38;;;6.90;99.90;;;;;;2056704;28;20452;-77
2023/12/24 02:32:43;;;;;;;1.90;1.35;;;6.90;99.90;;;;;;2071987;28;20393;-76
2023/12/24 02:33:45;;;;;;;1.83;1.50;;;6.90;99.90;;;;;;2079870;28;20601;-76
2023/12/24 02:34:48;;;;;;;1.50;1.40;;;6.90;99.90;;;;;;2076252;28;20045;-75
2023/12/24 02:35:49;;;;;;;1.50;1.40;;;6.90;99.90;;;;;;2079550;28;20103;-77
2023/12/24 02:36:51;;;;;;;1.88;1.50;;;6.90;99.90;;;;;;2080444;28;20119;-76
2023/12/24 02:37:51;;;;;;;1.65;1.33;;;6.90;99.90;;;;;;2077620;28;20496;-76
2023/12/24 02:38:52;;;;;;;1.85;1.45;;;6.80;99.90;;;;;;2086943;28;20503;-78
2023/12/24 02:39:53;;;;;;;1.50;1.40;;;6.90;99.90;;;;;;2079639;28;20128;-76
2023/12/24 02:40:53;;;;;;;1.45;1.35;;;6.90;99.90;;;;;;2076979;28;20029;-76
2023/12/24 02:41:54;;;;;;;1.50;1.40;;;6.80;99.90;;;;;;2089232;28;20062;-76
2023/12/24 02:42:55;;;;;;;2.22;1.40;;;6.80;99.90;;;;;;2077492;28;20045;-76
2023/12/24 02:43:55;;;;;;;2.05;1.40;;;6.90;99.90;;;;;;2079551;28;20120;-76
2023/12/24 02:44:56;;;;;;;1.63;1.50;;;6.90;99.90;;;;;;2077292;28;20029;-77
2023/12/24 02:45:57;;;;;;;1.60;1.50;;;6.90;99.90;;;;;;2077939;28;20038;-77
2023/12/24 02:46:57;;;;;;;1.50;1.38;;;6.80;99.90;;;;;;2087979;28;20063;-77
2023/12/24 02:47:58;;;;;;;1.40;1.30;;;6.80;99.90;;;;;;2078266;28;20064;-77
2023/12/24 02:48:58;;;;;;;1.55;1.45;;;6.90;99.90;;;;;;2069214;28;20061;-77
2023/12/24 02:49:59;;;;;;;1.58;1.48;;;6.90;99.90;;;;;;2070953;28;20041;-76
2023/12/24 02:50:59;;;;;;;1.50;1.40;;;6.90;99.90;;;;;;2078514;28;20069;-76
2023/12/24 02:52:00;;;;;;;1.60;1.50;;;6.90;99.90;;;;;;2078130;28;20100;-78
2023/12/24 02:53:00;;;;;;;1.92;1.80;;;6.80;99.90;;;;;;2079649;28;20025;-76
2023/12/24 02:54:01;;;;;;;1.83;1.60;;;6.80;99.90;;;;;;2077971;28;20029;-76
2023/12/24 02:55:02;;;;;;;2.78;1.80;;;6.90;99.90;;;;;;2077880;28;20040;-77
2023/12/24 02:56:04;;;;;;;1.70;1.60;;;6.80;99.90;;;;;;2076794;28;20040;-77
2023/12/24 02:57:05;;;;;;;2.00;1.60;;;6.90;99.90;;;;;;2076071;28;20096;-77
2023/12/24 02:58:05;;;;;;;1.63;1.52;;;6.90;99.90;;;;;;2079351;28;20104;-76
2023/12/24 02:59:06;;;;;;;1.98;1.77;;;6.80;99.90;;;;;;2084737;28;20280;-78
2023/12/24 03:00:08;;;;;;;1.95;1.70;;;6.80;99.90;;;;;;2079503;28;20033;-76
2023/12/24 03:01:09;;;;;;;1.70;1.60;;;6.90;99.90;;;;;;2079112;28;20029;-78
2023/12/24 03:02:09;;;;;;;1.83;1.73;;;6.90;99.90;;;;;;2076047;28;20112;-76
2023/12/24 03:03:10;;;;;;;2.67;1.90;;;6.90;99.90;;;;;;2071324;28;20040;-77
2023/12/24 03:04:11;;;;;;;2.20;1.65;;;6.90;99.90;;;;;;2071141;28;20026;-75
2023/12/24 03:05:11;;;;;;;2.15;1.73;;;6.90;99.90;;;;;;2067544;28;20034;-75
2023/12/24 03:06:12;;;;;;;1.77;1.60;;;6.90;99.90;;;;;;2063117;28;20030;-76
2023/12/24 03:07:13;;;;;;;2.63;1.80;;;7.00;99.90;;;;;;2071303;28;20022;-78
2023/12/24 03:08:15;;;;;;;1.77;1.58;;;7.00;99.90;;;;;;2072396;28;20040;-77
2023/12/24 03:09:15;;;;;;;1.95;1.73;;;6.90;99.90;;;;;;2079907;28;20099;-75
2023/12/24 03:10:16;;;;;;;2.05;1.85;;;6.90;99.90;;;;;;2080263;28;20075;-76
2023/12/24 03:11:16;;;;;;;1.80;1.70;;;6.90;99.90;;;;;;2067191;28;20062;-77
2023/12/24 03:12:18;;;;;;;1.90;1.80;;;6.90;99.90;;;;;;2071018;28;20120;-76
2023/12/24 03:13:18;;;;;;;2.33;1.90;;;7.00;99.90;;;;;;2079210;28;20040;-78
2023/12/24 03:14:19;;;;;;;2.38;1.80;;;7.00;99.90;;;;;;2075809;28;20034;-77
2023/12/24 03:15:19;;;;;;;2.05;1.80;;;7.00;99.90;;;;;;2086999;28;20035;-77
2023/12/24 03:16:20;;;;;;;2.50;1.60;;;6.90;99.90;;;;;;2080201;28;20086;-76
2023/12/24 03:17:21;;;;;;;3.03;1.83;;;6.90;99.90;;;;;;2084503;28;20044;-77
2023/12/24 03:18:21;;;;;;;2.15;1.75;;;6.90;99.90;;;;;;2078279;28;20045;-77
2023/12/24 03:19:22;;;;;;;3.10;2.00;;;6.90;99.90;;;;;;2067236;28;20037;-77
2023/12/24 03:20:22;;;;;;;3.30;1.67;;;6.90;99.90;;;;;;2068219;28;20353;-76
2023/12/24 03:21:23;;;;;;;2.10;1.90;;;6.90;99.90;;;;;;2062109;28;20026;-76
2023/12/24 03:22:24;;;;;;;2.08;1.80;;;6.90;99.90;;;;;;2071003;28;20040;-76
2023/12/24 03:23:24;;;;;;;2.50;1.70;;;6.90;99.90;;;;;;2075557;28;20068;-76
2023/12/24 03:24:25;;;;;;;2.28;1.90;;;6.90;99.90;;;;;;2067371;28;20092;-77
2023/12/24 03:25:26;;;;;;;2.00;1.80;;;6.90;99.90;;;;;;2071348;28;20033;-77
2023/12/24 03:26:26;;;;;;;2.97;1.80;;;6.90;99.90;;;;;;2075878;28;20021;-76
2023/12/24 03:27:27;;;;;;;2.15;1.90;;;6.90;99.90;;;;;;2076171;28;20116;-77
2023/12/24 03:28:27;;;;;;;2.30;1.88;;;6.90;99.90;;;;;;2076288;28;20064;-77
2023/12/24 03:29:28;;;;;;;2.67;1.98;;;6.80;99.90;;;;;;2068969;28;20113;-77
2023/12/24 03:30:29;;;;;;;1.90;1.77;;;6.80;99.90;;;;;;2060977;28;20092;-75
2023/12/24 03:31:29;;;;;;;2.10;1.80;;;6.80;99.90;;;;;;2065319;28;20038;-75
2023/12/24 03:32:30;;;;;;;2.13;1.92;;;6.80;99.90;;;;;;2087616;28;20036;-75
2023/12/24 03:33:30;;;;;;;3.30;1.85;;;6.80;99.90;;;;;;2078237;28;20053;-74
2023/12/24 03:34:31;;;;;;;2.92;1.80;;;6.80;99.90;;;;;;2077158;28;20033;-74
2023/12/24 03:35:31;;;;;;;3.15;1.95;;;6.90;99.90;;;;;;2070795;28;20044;-74
2023/12/24 03:36:33;;;;;;;2.17;1.70;;;6.90;99.90;;;;;;2064750;28;20105;-74
2023/12/24 03:37:33;;;;;;;1.95;1.73;;;6.90;99.90;;;;;;2076356;28;20071;-74
2023/12/24 03:38:34;;;;;;;2.58;1.67;;;6.90;99.90;;;;;;2077029;28;20720;-73
2023/12/24 03:39:34;;;;;;;2.53;1.80;;;7.00;99.90;;;;;;2087754;28;20466;-74
2023/12/24 03:40:35;;;;;;;3.38;1.75;;;7.00;99.90;;;;;;2080056;28;20329;-80
2023/12/24 03:41:35;;;;;;;2.03;1.77;;;6.90;99.90;;;;;;2080550;28;20113;-79
2023/12/24 03:42:36;;;;;;;2.35;1.70;;;6.90;99.90;;;;;;2082458;28;20327;-80
2023/12/24 03:43:37;;;;;;;1.67;1.58;;;6.90;99.90;;;;;;2087787;28;20035;-79
2023/12/24 03:44:38;;;;;;;1.70;1.60;;;7.00;99.90;;;;;;2077539;28;20067;-80
2023/12/24 03:45:40;;;;;;;2.03;1.70;;;7.00;99.90;;;;;;2072220;28;20032;-80
2023/12/24 03:46:41;;;;;;;1.70;1.60;;;7.00;99.90;;;;;;2076556;28;20037;-78
2023/12/24 03:47:41;;;;;;;3.28;1.75;;;7.00;99.90;;;;;;2085485;28;20029;-79
2023/12/24 03:48:42;;;;;;;2.42;1.73;;;7.00;99.90;;;;;;2081926;28;20424;-78
2023/12/24 03:49:42;;;;;;;1.80;1.60;;;7.00;99.90;;;;;;2081396;28;20025;-78
2023/12/24 03:50:43;;;;;;;2.25;1.70;;;7.00;99.90;;;;;;2079454;28;20026;-81
2023/12/24 03:51:44;;;;;;;2.90;1.85;;;7.00;99.90;;;;;;2091064;28;20092;-80
2023/12/24 03:52:45;;;;;;;2.90;1.70;;;7.00;99.90;;;;;;2091216;28;20048;-82
2023/12/24 03:53:46;;;;;;;2.00;1.60;;;7.00;99.90;;;;;;2078890;28;20463;-80
2023/12/24 03:54:46;;;;;;;2.95;1.60;;;7.00;99.90;;;;;;2062611;28;20034;-80
2023/12/24 03:55:47;;;;;;;2.00;1.80;;;7.00;99.90;;;;;;2064701;28;20070;-83
2023/12/24 03:56:48;;;;;;;2.47;1.50;;;7.00;99.90;;;;;;2069394;28;20083;-82
2023/12/24 03:57:48;;;;;;;3.38;1.70;;;7.00;99.90;;;;;;2070361;28;20025;-80
2023/12/24 03:58:49;;;;;;;1.77;1.50;;;7.00;99.90;;;;;;2065401;28;20034;-81
2023/12/24 03:59:49;;;;;;;4.57;1.60;;;7.00;99.90;;;;;;2081331;28;20036;-79
2023/12/24 04:00:50;;;;;;;2.83;1.63;;;7.00;99.90;;;;;;2082124;28;20022;-78
2023/12/24 04:01:50;;;;;;;2.05;1.50;;;7.00;99.90;;;;;;2091173;28;20055;-80
2023/12/24 04:02:54;;;;;;;2.65;1.40;;;7.00;99.90;;;;;;2090522;28;20052;-80
2023/12/24 04:03:54;;;;;;;3.03;1.50;;;7.00;99.90;;;;;;2082575;28;20033;-81
2023/12/24 04:04:55;;;;;;;3.58;1.67;;;7.00;99.90;;;;;;2077760;28;20037;-79
2023/12/24 04:05:55;;;;;;;1.83;1.50;;;7.00;99.90;;;;;;2086427;28;20028;-79
2023/12/24 04:06:56;;;;;;;2.70;1.70;;;7.00;99.90;;;;;;2079288;28;20042;-79
2023/12/24 04:07:56;;;;;;;2.13;1.60;;;6.90;99.90;;;;;;2076264;28;20147;-80
2023/12/24 04:08:57;;;;;;;1.60;1.50;;;7.00;99.90;;;;;;2079177;28;20039;-78
2023/12/24 04:09:58;;;;;;;2.75;1.50;;;7.00;99.90;;;;;;2069719;28;20036;-79
2023/12/24 04:10:58;;;;;;;2.15;1.50;;;7.00;99.90;;;;;;2051176;28;20035;-80
2023/12/24 04:11:59;;;;;;;1.70;1.55;;;7.00;99.90;;;;;;2059226;28;20044;-79
2023/12/24 04:13:02;;;;;;;2.08;1.52;;;7.00;99.90;;;;;;2065192;28;20089;-80
2023/12/24 04:14:02;;;;;;;2.78;1.60;;;7.00;99.90;;;;;;2079410;28;20190;-80
2023/12/24 04:15:05;;;;;;;2.10;1.60;;;7.00;99.90;;;;;;2075513;28;20026;-80
2023/12/24 04:16:06;;;;;;;2.30;1.40;;;6.90;99.90;;;;;;2077477;28;20710;-78
2023/12/24 04:17:07;;;;;;;2.40;1.50;;;6.90;99.90;;;;;;2076103;28;20286;-79
2023/12/24 04:18:07;;;;;;;1.60;1.50;;;7.00;99.90;;;;;;2075654;28;20087;-78
2023/12/24 04:19:08;;;;;;;2.97;1.52;;;7.00;99.90;;;;;;2075692;28;20116;-79
2023/12/24 04:20:09;;;;;;;1.80;1.50;;;7.00;99.90;;;;;;2075372;28;20030;-77
2023/12/24 04:21:10;;;;;;;3.22;1.45;;;7.00;99.90;;;;;;2079409;28;20436;-79
2023/12/24 04:22:11;;;;;;;1.92;1.58;;;7.00;99.90;;;;;;2070575;28;20033;-76
2023/12/24 04:23:11;;;;;;;2.03;1.30;;;7.00;99.90;;;;;;2070643;28;20057;-78
2023/12/24 04:24:12;;;;;;;1.42;1.30;;;7.00;99.90;;;;;;2078384;28;20031;-78
2023/12/24 04:25:13;;;;;;;1.77;1.38;;;7.00;99.90;;;;;;2075858;28;20025;-81
2023/12/24 04:26:13;;;;;;;1.60;1.50;;;7.00;99.90;;;;;;2074952;28;20097;-79
2023/12/24 04:27:14;;;;;;;2.10;1.50;;;7.00;99.90;;;;;;2078731;28;20669;-79
2023/12/24 04:28:15;;;;;;;2.13;1.40;;;6.90;99.90;;;;;;2075463;28;20586;-78
2023/12/24 04:29:16;;;;;;;1.50;1.40;;;6.90;99.90;;;;;;2079361;28;20025;-78
2023/12/24 04:30:17;;;;;;;2.47;1.60;;;6.90;99.90;;;;;;2079390;28;20436;-77
2023/12/24 04:31:18;;;;;;;2.50;1.45;;;6.90;99.90;;;;;;2080605;28;20068;-77
2023/12/24 04:32:20;;;;;;;2.25;1.48;;;6.90;99.90;;;;;;2078574;28;20120;-76
2023/12/24 04:33:20;;;;;;;2.67;1.50;;;6.90;99.90;;;;;;2068526;28;20099;-78
2023/12/24 04:34:21;;;;;;;2.05;1.50;;;7.00;99.90;;;;;;2067172;28;20041;-78
2023/12/24 04:35:22;;;;;;;1.98;1.48;;;6.90;99.90;;;;;;2070048;28;20049;-80
2023/12/24 04:36:22;;;;;;;1.50;1.30;;;7.00;99.90;;;;;;2078719;28;20041;-78
2023/12/24 04:37:23;;;;;;;1.65;1.50;;;7.00;99.90;;;;;;2067359;28;20022;-78
2023/12/24 04:38:24;;;;;;;2.15;1.50;;;7.00;99.90;;;;;;2070067;28;20029;-79
2023/12/24 04:39:24;;;;;;;1.70;1.40;;;6.90;99.90;;;;;;2071615;28;20057;-79
2023/12/24 04:40:25;;;;;;;1.92;1.63;;;7.00;99.90;;;;;;2075828;28;20037;-79
2023/12/24 04:41:28;;;;;;;1.85;1.50;;;7.00;99.90;;;;;;2079075;28;20112;-79
2023/12/24 04:42:30;;;;;;;1.73;1.30;;;7.00;99.90;;;;;;2081306;28;20021;-79
2023/12/24 04:43:30;;;;;;;2.55;1.48;;;7.00;99.90;;;;;;2076543;28;20041;-77
2023/12/24 04:44:31;;;;;;;2.45;1.60;;;7.00;99.90;;;;;;2068831;28;20105;-78
2023/12/24 04:45:31;;;;;;;2.05;1.42;;;7.00;99.90;;;;;;2076616;28;20029;-79
2023/12/24 04:46:38;;;;;;;2.30;1.42;;;7.00;99.90;;;;;;2084871;28;20039;-79
2023/12/24 04:47:39;;;;;;;2.22;1.42;;;7.00;99.90;;;;;;2075157;28;20124;-78
2023/12/24 04:48:40;;;;;;;2.58;1.35;;;7.10;99.90;;;;;;2070446;28;20500;-78
2023/12/24 04:49:40;;;;;;;2.25;1.25;;;7.10;99.90;;;;;;2076369;28;20593;-79
2023/12/24 04:50:41;;;;;;;1.95;1.40;;;7.10;99.90;;;;;;2067465;28;20594;-78
2023/12/24 04:51:42;;;;;;;1.40;1.30;;;7.10;99.90;;;;;;2059118;28;20034;-78
2023/12/24 04:52:43;;;;;;;2.17;1.30;;;7.10;99.90;;;;;;2070060;28;20116;-79
2023/12/24 04:53:43;;;;;;;1.42;1.33;;;7.10;99.90;;;;;;2083841;28;20039;-80
2023/12/24 04:54:45;;;;;;;3.17;1.40;;;7.10;99.90;;;;;;2087016;28;20483;-80
2023/12/24 04:55:48;;;;;;;1.75;1.30;;;7.10;99.90;;;;;;2078440;28;20457;-78
2023/12/24 04:56:49;;;;;;;1.48;1.30;;;7.10;99.90;;;;;;2062896;28;20408;-79
2023/12/24 04:57:50;;;;;;;1.40;1.30;;;7.10;99.90;;;;;;2070550;28;20025;-79
2023/12/24 04:58:51;;;;;;;1.98;1.38;;;7.10;99.90;;;;;;2078737;28;20108;-78
2023/12/24 04:59:53;;;;;;;1.73;1.20;;;7.10;99.90;;;;;;2066552;28;20810;-79
2023/12/24 05:00:53;;;;;;;1.70;1.30;;;7.10;99.90;;;;;;2053747;28;20198;-78
2023/12/24 05:01:54;;;;;;;1.90;1.30;;;7.10;99.90;;;;;;2067102;28;20039;-78
2023/12/24 05:02:54;;;;;;;1.88;1.25;;;7.10;99.90;;;;;;2075296;28;20152;-78
2023/12/24 05:03:55;;;;;;;2.45;1.50;;;7.10;99.90;;;;;;2077817;28;20068;-78
2023/12/24 05:04:56;;;;;;;2.55;1.27;;;7.10;99.90;;;;;;2078567;28;20039;-78
2023/12/24 05:05:56;;;;;;;2.15;1.30;;;7.10;99.90;;;;;;2078620;28;20581;-78
2023/12/24 05:06:57;;;;;;;2.00;1.20;;;7.10;99.90;;;;;;2075195;28;20025;-77
2023/12/24 05:07:58;;;;;;;1.20;1.15;;;7.10;99.90;;;;;;2069125;28;20022;-78
2023/12/24 05:08:59;;;;;;;2.17;1.30;;;7.10;99.90;;;;;;2070259;28;20079;-78
2023/12/24 05:10:01;;;;;;;2.50;1.30;;;7.10;99.90;;;;;;2068088;28;20026;-79
2023/12/24 05:11:06;;;;;;;2.25;1.20;;;7.10;99.90;;;;;;2077421;28;20384;-78
2023/12/24 05:12:07;;;;;;;1.45;1.10;;;7.10;99.90;;;;;;2075788;28;20025;-78
2023/12/24 05:13:11;;;;;;;1.38;1.15;;;7.10;99.90;;;;;;2070385;28;20025;-79
2023/12/24 05:14:11;;;;;;;1.70;1.10;;;7.10;99.90;;;;;;2077684;28;20628;-79
2023/12/24 05:15:12;;;;;;;1.38;1.20;;;7.10;99.90;;;;;;2074299;28;20056;-79
2023/12/24 05:16:12;;;;;;;1.25;1.25;;;7.10;99.90;;;;;;2077511;28;20130;-79
2023/12/24 05:17:13;;;;;;;1.58;1.10;;;7.10;99.90;;;;;;2069369;28;20387;-80
2023/12/24 05:18:13;;;;;;;1.20;1.10;;;7.10;99.90;;;;;;2067299;28;20057;-79
2023/12/24 05:19:14;;;;;;;1.23;1.13;;;7.10;99.90;;;;;;2078384;28;20124;-79
2023/12/24 05:20:15;;;;;;;1.40;1.10;;;7.10;99.90;;;;;;2077997;28;20442;-78
2023/12/24 05:21:16;;;;;;;1.05;0.90;;;7.10;99.90;;;;;;2066962;28;20116;-79